Aeroporto :
LOGIN :

Iscrizione | Disclaimer

   EN    FR    IT 

 










Sommario :    VFR   VFR Marginale   IFR   IFR Intensivo   IFR Molto Intensivo
Visibilità : 
Base nubi : 
>= 8 km
>= 3000ft
5 / 8 km
1000 / 3000 ft
1500m / 5 km
500 / 1000 ft
800 / 1500m
200 / 500 ft
< 800m
< 200 ft
Simboli :   Temporali  Nebbia  Neve Forte  Precipitazioni Forti  Vento > 20 kt
SIGMETs :   Varie  Temporali  Ghiacco  Turbolenza  Onda orograficha  Ceneri Vulcaniche






- Altitudine del aeroporto : 1202 ft
- Codice IATA : IGS


ETSI - Ingolstadt

ULTIMO METAR :
  • 031020Z VRB03KT 8000 SCT016 BKN034 M01/M03 Q1008 BLU BLU

METARs OBSOLETI :
  • 030940Z 18004KT 7000 BKN016 BKN034 M01/M03 Q1008 WHT BLU TEMPO WHT
  • 030920Z 19003KT 8000 BKN015 BKN034 M01/M03 Q1009 WHT BLU TEMPO WHT
  • 030914Z 19003KT 8000 BKN015 BKN034 M01/M03 Q1009 WHT BLU TEMPO WHT
  • 030820Z 16004KT 7000 FEW020 BKN033 M02/M04 Q1009 WHT BLU TEMPO WHT

TAF AMD TAF ETSI
Valido dal 03 a 09 ore il 03 a 18 ore UTC


030916Z 0309/0318 16003KT 9999 NSW BKN030
TEMPO 0309/0311 15004KT 7000 NSW BKN015



MetMap, La meteo Aeronautica in un colpo d'occhio ! - Copyright ORBIFLY Dicembre 2007 - Disclaimer

ORBIFLY MET'MAP TEAM :

Programmazione e sviluppo : Alexandra Zaïnal
Concezione : Baudouin d'Aumeries
Aiuto per la programmazione : Marc-Olivier Méhu
Supporto tecnico e logistico : Manuel Goepfert
Aiuto per la traduzione : Arnaldo La Scala

Contatto : metmap@orbifly.com




FONTI E CREDITI :

   NOAA